Portada
METAR-TAF:

METAR-TAF

Aeroports :

Orange County Airport

Montgomery, Nova York, Estats Units d'Amèrica

latitud: 41-30-33N, longitud: 074-15-54W, altitud: 111 m

Observació

L'informe es va fer fa 41 minuts, a les 17:54 UTC
Vent 4 kt del Sud
Temperatura 20°C
Humitat 73%
Pressió 1023 hPa
Visibilitat: 16.1 km
Escasses núvols a una alçada de 2600 ft

METAR: KMGJ 251754Z AUTO 17004KT 10SM FEW026 20/15 A3021 RMK AO2 SLP229 T02000150 10206 20139 56004

Hora: 14:35 (18:35 UTC)


TAF: manca

Observacions i pronòstics meteorològics de més de 4000 aeroports (METAR i TAF).

Les estacions disponibles són els punts grocs i vermells al mapa.

Posi el ratolí al punt desitjat per veure el nom de l'estació.

Feu clic per veure les observacions i els pronòstics meteorològics.

Per canviar el mapa: feu clic els botons verds amb una creu de color negre per apropar; al botó verd amb un guió per allunyar la imatge; o en les fletxes verdes per a mapes adjacents.


METAR-TAF: